Cincinnati, Ohio
Traffic Map
Current Weather Conditions
Cincinnati, Ohio
Few Clouds Haze
Few Clouds
18°
Feels Like: 18°
Wind Chill: 18° Ceiling: Unl
Heat Index: 18° Visibility: 1.2mi
Dew Point: 18° Wind: 5mph
Humidity: 100% Direction: 190° (S)
Pressure: 29.87in Gusts: 0mph
Raw Report DataKLUK 240623Z AUTO 19004KT 1 1/4SM R21L/4500VP6000FT BR FEW002 18/18 A2987 RMK AO2 VIS 3/4V5 T01780178
Traffic Incident Summary
Active as of:
Severity:
Category:
InformationThere was an issue retrieving the traffic information for this location. Please try a different location or try again shortly.
Advertisements
Track Severe Weather on mobile